sensor_id;sensor_type;location;lat;lon;timestamp;P1;durP1;ratioP1;P2;durP2;ratioP2
40611;SDS011;26317;44.894;20.286;2022-12-29T00:01:37;65.03;;;50.65;;
40611;SDS011;26317;44.894;20.286;2022-12-29T00:04:09;62.67;;;49.83;;
40611;SDS011;26317;44.894;20.286;2022-12-29T00:06:45;67.53;;;51.65;;
40611;SDS011;26317;44.894;20.286;2022-12-29T00:09:21;67.68;;;52.03;;
40611;SDS011;26317;44.894;20.286;2022-12-29T00:11:52;71.53;;;53.67;;
40611;SDS011;26317;44.894;20.286;2022-12-29T00:14:30;66.97;;;50.28;;
40611;SDS011;26317;44.894;20.286;2022-12-29T00:17:16;65.93;;;52.05;;
40611;SDS011;26317;44.894;20.286;2022-12-29T00:19:48;64.82;;;52.35;;
40611;SDS011;26317;44.894;20.286;2022-12-29T00:22:33;65.70;;;50.17;;
40611;SDS011;26317;44.894;20.286;2022-12-29T00:25:17;65.55;;;50.95;;
40611;SDS011;26317;44.894;20.286;2022-12-29T00:28:02;64.45;;;50.58;;
40611;SDS011;26317;44.894;20.286;2022-12-29T00:30:50;64.63;;;50.45;;
40611;SDS011;26317;44.894;20.286;2022-12-29T00:33:38;69.10;;;53.72;;
40611;SDS011;26317;44.894;20.286;2022-12-29T00:36:23;68.80;;;53.03;;
40611;SDS011;26317;44.894;20.286;2022-12-29T00:39:09;68.90;;;52.28;;
40611;SDS011;26317;44.894;20.286;2022-12-29T00:41:56;67.93;;;53.92;;
40611;SDS011;26317;44.894;20.286;2022-12-29T00:44:44;71.30;;;55.78;;
40611;SDS011;26317;44.894;20.286;2022-12-29T00:47:20;72.72;;;54.88;;
40611;SDS011;26317;44.894;20.286;2022-12-29T00:50:05;67.53;;;53.55;;
40611;SDS011;26317;44.894;20.286;2022-12-29T00:52:40;70.97;;;54.65;;
40611;SDS011;26317;44.894;20.286;2022-12-29T00:55:26;75.15;;;55.08;;
40611;SDS011;26317;44.894;20.286;2022-12-29T00:58:00;72.72;;;57.17;;
40611;SDS011;26317;44.894;20.286;2022-12-29T01:00:30;80.78;;;59.17;;
40611;SDS011;26317;44.894;20.286;2022-12-29T01:02:59;74.75;;;56.13;;
40611;SDS011;26317;44.894;20.286;2022-12-29T01:05:35;75.30;;;57.78;;
40611;SDS011;26317;44.894;20.286;2022-12-29T01:08:09;68.93;;;55.97;;
40611;SDS011;26317;44.894;20.286;2022-12-29T01:10:57;75.10;;;57.78;;
40611;SDS011;26317;44.894;20.286;2022-12-29T01:13:32;71.00;;;55.67;;
40611;SDS011;26317;44.894;20.286;2022-12-29T01:16:09;74.97;;;57.35;;
40611;SDS011;26317;44.894;20.286;2022-12-29T01:18:42;74.43;;;55.10;;
40611;SDS011;26317;44.894;20.286;2022-12-29T01:21:33;71.53;;;56.22;;
40611;SDS011;26317;44.894;20.286;2022-12-29T01:24:07;71.00;;;54.28;;
40611;SDS011;26317;44.894;20.286;2022-12-29T01:26:40;69.78;;;55.05;;
40611;SDS011;26317;44.894;20.286;2022-12-29T01:29:10;80.25;;;57.50;;
40611;SDS011;26317;44.894;20.286;2022-12-29T01:31:47;75.78;;;58.92;;
40611;SDS011;26317;44.894;20.286;2022-12-29T01:34:23;68.15;;;54.92;;
40611;SDS011;26317;44.894;20.286;2022-12-29T01:37:03;69.07;;;55.75;;
40611;SDS011;26317;44.894;20.286;2022-12-29T01:39:45;72.95;;;55.30;;
40611;SDS011;26317;44.894;20.286;2022-12-29T01:42:23;76.45;;;55.70;;
40611;SDS011;26317;44.894;20.286;2022-12-29T01:44:58;73.13;;;56.03;;
40611;SDS011;26317;44.894;20.286;2022-12-29T01:47:40;70.35;;;56.28;;
40611;SDS011;26317;44.894;20.286;2022-12-29T01:50:18;76.10;;;56.33;;
40611;SDS011;26317;44.894;20.286;2022-12-29T01:53:00;72.47;;;56.75;;
40611;SDS011;26317;44.894;20.286;2022-12-29T01:55:34;71.32;;;56.05;;
40611;SDS011;26317;44.894;20.286;2022-12-29T01:58:14;73.70;;;58.45;;
40611;SDS011;26317;44.894;20.286;2022-12-29T02:00:48;75.18;;;58.05;;
40611;SDS011;26317;44.894;20.286;2022-12-29T02:03:27;69.65;;;56.72;;
40611;SDS011;26317;44.894;20.286;2022-12-29T02:06:02;73.97;;;58.20;;
40611;SDS011;26317;44.894;20.286;2022-12-29T02:08:43;78.80;;;58.08;;
40611;SDS011;26317;44.894;20.286;2022-12-29T02:11:16;84.13;;;62.28;;
40611;SDS011;26317;44.894;20.286;2022-12-29T02:13:53;90.03;;;67.13;;
40611;SDS011;26317;44.894;20.286;2022-12-29T02:16:38;85.60;;;64.25;;
40611;SDS011;26317;44.894;20.286;2022-12-29T02:19:28;80.80;;;61.38;;
40611;SDS011;26317;44.894;20.286;2022-12-29T02:22:19;76.05;;;59.13;;
40611;SDS011;26317;44.894;20.286;2022-12-29T02:25:20;76.40;;;56.22;;
40611;SDS011;26317;44.894;20.286;2022-12-29T02:28:36;76.40;;;59.17;;
40611;SDS011;26317;44.894;20.286;2022-12-29T02:31:39;79.38;;;59.47;;
40611;SDS011;26317;44.894;20.286;2022-12-29T02:34:17;76.35;;;58.17;;
40611;SDS011;26317;44.894;20.286;2022-12-29T02:36:59;74.05;;;56.50;;
40611;SDS011;26317;44.894;20.286;2022-12-29T02:39:40;71.18;;;57.25;;
40611;SDS011;26317;44.894;20.286;2022-12-29T02:42:25;71.82;;;58.33;;
40611;SDS011;26317;44.894;20.286;2022-12-29T02:45:13;64.80;;;53.63;;
40611;SDS011;26317;44.894;20.286;2022-12-29T02:50:54;75.72;;;58.40;;
40611;SDS011;26317;44.894;20.286;2022-12-29T02:53:55;71.50;;;57.80;;
40611;SDS011;26317;44.894;20.286;2022-12-29T02:56:40;67.57;;;56.28;;
40611;SDS011;26317;44.894;20.286;2022-12-29T02:59:18;68.20;;;55.40;;
40611;SDS011;26317;44.894;20.286;2022-12-29T03:02:11;74.40;;;57.08;;
40611;SDS011;26317;44.894;20.286;2022-12-29T03:05:15;69.38;;;56.28;;
40611;SDS011;26317;44.894;20.286;2022-12-29T03:07:58;70.28;;;57.65;;
40611;SDS011;26317;44.894;20.286;2022-12-29T03:10:41;73.78;;;56.20;;
40611;SDS011;26317;44.894;20.286;2022-12-29T03:13:23;72.07;;;58.25;;
40611;SDS011;26317;44.894;20.286;2022-12-29T03:16:18;71.20;;;57.42;;
40611;SDS011;26317;44.894;20.286;2022-12-29T03:19:08;70.68;;;58.85;;
40611;SDS011;26317;44.894;20.286;2022-12-29T03:22:04;77.13;;;58.90;;
40611;SDS011;26317;44.894;20.286;2022-12-29T03:25:21;75.60;;;57.07;;
40611;SDS011;26317;44.894;20.286;2022-12-29T03:28:07;78.43;;;59.00;;
40611;SDS011;26317;44.894;20.286;2022-12-29T03:30:47;69.50;;;55.83;;
40611;SDS011;26317;44.894;20.286;2022-12-29T03:33:21;69.28;;;57.17;;
40611;SDS011;26317;44.894;20.286;2022-12-29T03:36:02;72.05;;;59.70;;
40611;SDS011;26317;44.894;20.286;2022-12-29T03:38:59;82.82;;;62.95;;
40611;SDS011;26317;44.894;20.286;2022-12-29T03:41:43;82.28;;;67.13;;
40611;SDS011;26317;44.894;20.286;2022-12-29T03:44:20;99.32;;;72.60;;
40611;SDS011;26317;44.894;20.286;2022-12-29T03:46:53;89.13;;;70.38;;
40611;SDS011;26317;44.894;20.286;2022-12-29T03:49:46;90.63;;;75.65;;
40611;SDS011;26317;44.894;20.286;2022-12-29T03:52:15;89.65;;;70.13;;
40611;SDS011;26317;44.894;20.286;2022-12-29T03:55:00;85.68;;;67.32;;
40611;SDS011;26317;44.894;20.286;2022-12-29T03:57:41;86.40;;;70.10;;
40611;SDS011;26317;44.894;20.286;2022-12-29T04:00:27;82.57;;;67.78;;
40611;SDS011;26317;44.894;20.286;2022-12-29T04:03:01;90.45;;;71.22;;
40611;SDS011;26317;44.894;20.286;2022-12-29T04:08:12;82.40;;;65.22;;
40611;SDS011;26317;44.894;20.286;2022-12-29T04:10:51;78.75;;;63.20;;
40611;SDS011;26317;44.894;20.286;2022-12-29T04:13:28;73.80;;;61.72;;
40611;SDS011;26317;44.894;20.286;2022-12-29T04:18:40;78.53;;;61.83;;
40611;SDS011;26317;44.894;20.286;2022-12-29T04:21:14;67.45;;;56.30;;
40611;SDS011;26317;44.894;20.286;2022-12-29T04:23:52;73.45;;;56.10;;
40611;SDS011;26317;44.894;20.286;2022-12-29T04:26:38;64.18;;;54.85;;
40611;SDS011;26317;44.894;20.286;2022-12-29T04:29:36;72.75;;;57.45;;
40611;SDS011;26317;44.894;20.286;2022-12-29T04:32:14;70.85;;;54.40;;
40611;SDS011;26317;44.894;20.286;2022-12-29T04:34:50;72.03;;;56.25;;
40611;SDS011;26317;44.894;20.286;2022-12-29T04:37:26;71.95;;;56.92;;
40611;SDS011;26317;44.894;20.286;2022-12-29T04:40:00;68.53;;;54.00;;
40611;SDS011;26317;44.894;20.286;2022-12-29T04:42:47;69.82;;;52.95;;
40611;SDS011;26317;44.894;20.286;2022-12-29T04:45:22;65.20;;;50.22;;
40611;SDS011;26317;44.894;20.286;2022-12-29T04:48:09;67.13;;;51.88;;
40611;SDS011;26317;44.894;20.286;2022-12-29T04:51:13;67.90;;;51.35;;
40611;SDS011;26317;44.894;20.286;2022-12-29T04:53:45;64.05;;;51.17;;
40611;SDS011;26317;44.894;20.286;2022-12-29T04:56:24;72.00;;;54.83;;
40611;SDS011;26317;44.894;20.286;2022-12-29T04:59:02;66.03;;;54.13;;
40611;SDS011;26317;44.894;20.286;2022-12-29T05:01:33;73.80;;;58.35;;
40611;SDS011;26317;44.894;20.286;2022-12-29T05:04:10;74.43;;;56.60;;
40611;SDS011;26317;44.894;20.286;2022-12-29T05:06:45;77.72;;;61.90;;
40611;SDS011;26317;44.894;20.286;2022-12-29T05:09:20;98.55;;;72.05;;
40611;SDS011;26317;44.894;20.286;2022-12-29T05:11:56;91.43;;;67.15;;
40611;SDS011;26317;44.894;20.286;2022-12-29T05:14:46;92.13;;;69.47;;
40611;SDS011;26317;44.894;20.286;2022-12-29T05:17:18;87.05;;;66.95;;
40611;SDS011;26317;44.894;20.286;2022-12-29T05:19:52;86.97;;;67.35;;
40611;SDS011;26317;44.894;20.286;2022-12-29T05:22:26;92.43;;;72.55;;
40611;SDS011;26317;44.894;20.286;2022-12-29T05:25:06;86.18;;;66.75;;
40611;SDS011;26317;44.894;20.286;2022-12-29T05:28:02;83.38;;;66.65;;
40611;SDS011;26317;44.894;20.286;2022-12-29T05:30:56;79.80;;;64.18;;
40611;SDS011;26317;44.894;20.286;2022-12-29T05:33:26;79.80;;;63.85;;
40611;SDS011;26317;44.894;20.286;2022-12-29T05:36:09;75.75;;;60.70;;
40611;SDS011;26317;44.894;20.286;2022-12-29T05:38:58;77.15;;;59.70;;
40611;SDS011;26317;44.894;20.286;2022-12-29T05:41:37;77.88;;;62.88;;
40611;SDS011;26317;44.894;20.286;2022-12-29T05:44:36;71.38;;;53.88;;
40611;SDS011;26317;44.894;20.286;2022-12-29T05:47:26;71.57;;;53.33;;
40611;SDS011;26317;44.894;20.286;2022-12-29T05:50:27;64.30;;;52.20;;
40611;SDS011;26317;44.894;20.286;2022-12-29T05:53:20;71.45;;;55.63;;
40611;SDS011;26317;44.894;20.286;2022-12-29T05:56:00;68.25;;;53.60;;
40611;SDS011;26317;44.894;20.286;2022-12-29T05:58:36;66.28;;;52.38;;
40611;SDS011;26317;44.894;20.286;2022-12-29T06:01:09;79.32;;;58.28;;
40611;SDS011;26317;44.894;20.286;2022-12-29T06:03:56;74.93;;;58.17;;
40611;SDS011;26317;44.894;20.286;2022-12-29T06:06:28;78.88;;;58.67;;
40611;SDS011;26317;44.894;20.286;2022-12-29T06:09:11;75.20;;;55.80;;
40611;SDS011;26317;44.894;20.286;2022-12-29T06:14:40;66.85;;;51.72;;
40611;SDS011;26317;44.894;20.286;2022-12-29T06:17:17;71.85;;;55.67;;
40611;SDS011;26317;44.894;20.286;2022-12-29T06:20:03;65.80;;;53.15;;
40611;SDS011;26317;44.894;20.286;2022-12-29T06:22:39;72.65;;;55.70;;
40611;SDS011;26317;44.894;20.286;2022-12-29T06:25:12;64.05;;;50.08;;
40611;SDS011;26317;44.894;20.286;2022-12-29T06:27:46;61.47;;;50.03;;
40611;SDS011;26317;44.894;20.286;2022-12-29T06:30:18;63.15;;;52.45;;
40611;SDS011;26317;44.894;20.286;2022-12-29T06:32:53;66.65;;;54.47;;
40611;SDS011;26317;44.894;20.286;2022-12-29T06:35:34;65.35;;;51.22;;
40611;SDS011;26317;44.894;20.286;2022-12-29T06:38:04;60.80;;;49.72;;
40611;SDS011;26317;44.894;20.286;2022-12-29T06:40:33;61.58;;;50.33;;
40611;SDS011;26317;44.894;20.286;2022-12-29T06:43:21;67.60;;;51.88;;
40611;SDS011;26317;44.894;20.286;2022-12-29T06:46:30;68.15;;;51.88;;
40611;SDS011;26317;44.894;20.286;2022-12-29T06:49:00;67.70;;;51.67;;
40611;SDS011;26317;44.894;20.286;2022-12-29T06:51:37;62.75;;;48.78;;
40611;SDS011;26317;44.894;20.286;2022-12-29T06:54:13;54.65;;;45.35;;
40611;SDS011;26317;44.894;20.286;2022-12-29T06:56:44;58.42;;;46.53;;
40611;SDS011;26317;44.894;20.286;2022-12-29T06:59:16;66.25;;;48.60;;
40611;SDS011;26317;44.894;20.286;2022-12-29T07:01:52;64.93;;;47.80;;
40611;SDS011;26317;44.894;20.286;2022-12-29T07:04:29;64.20;;;48.28;;
40611;SDS011;26317;44.894;20.286;2022-12-29T07:07:18;61.50;;;47.28;;
40611;SDS011;26317;44.894;20.286;2022-12-29T07:09:50;59.42;;;46.92;;
40611;SDS011;26317;44.894;20.286;2022-12-29T07:12:29;72.03;;;51.95;;
40611;SDS011;26317;44.894;20.286;2022-12-29T07:15:02;78.88;;;57.22;;
40611;SDS011;26317;44.894;20.286;2022-12-29T07:17:35;83.10;;;58.75;;
40611;SDS011;26317;44.894;20.286;2022-12-29T07:20:16;85.65;;;58.72;;
40611;SDS011;26317;44.894;20.286;2022-12-29T07:23:04;83.32;;;60.83;;
40611;SDS011;26317;44.894;20.286;2022-12-29T07:25:35;124.95;;;94.00;;
40611;SDS011;26317;44.894;20.286;2022-12-29T07:28:14;97.05;;;74.88;;
40611;SDS011;26317;44.894;20.286;2022-12-29T07:30:49;84.68;;;70.20;;
40611;SDS011;26317;44.894;20.286;2022-12-29T07:33:28;92.60;;;72.68;;
40611;SDS011;26317;44.894;20.286;2022-12-29T07:36:03;126.20;;;77.40;;
40611;SDS011;26317;44.894;20.286;2022-12-29T07:38:58;97.00;;;73.68;;
40611;SDS011;26317;44.894;20.286;2022-12-29T07:41:39;103.15;;;75.55;;
40611;SDS011;26317;44.894;20.286;2022-12-29T07:44:20;91.88;;;71.65;;
40611;SDS011;26317;44.894;20.286;2022-12-29T07:47:29;90.95;;;69.35;;
40611;SDS011;26317;44.894;20.286;2022-12-29T07:50:01;87.40;;;66.85;;
40611;SDS011;26317;44.894;20.286;2022-12-29T07:52:32;90.55;;;69.20;;
40611;SDS011;26317;44.894;20.286;2022-12-29T07:55:14;91.75;;;71.90;;
40611;SDS011;26317;44.894;20.286;2022-12-29T07:57:49;88.38;;;65.85;;
40611;SDS011;26317;44.894;20.286;2022-12-29T08:00:24;85.50;;;65.43;;
40611;SDS011;26317;44.894;20.286;2022-12-29T08:02:58;81.03;;;62.40;;
40611;SDS011;26317;44.894;20.286;2022-12-29T08:05:36;86.35;;;64.75;;
40611;SDS011;26317;44.894;20.286;2022-12-29T08:08:14;89.38;;;64.80;;
40611;SDS011;26317;44.894;20.286;2022-12-29T08:11:02;89.40;;;67.03;;
40611;SDS011;26317;44.894;20.286;2022-12-29T08:13:36;92.60;;;67.70;;
40611;SDS011;26317;44.894;20.286;2022-12-29T08:16:17;97.90;;;71.20;;
40611;SDS011;26317;44.894;20.286;2022-12-29T08:18:46;100.28;;;71.18;;
40611;SDS011;26317;44.894;20.286;2022-12-29T08:21:20;94.82;;;68.03;;
40611;SDS011;26317;44.894;20.286;2022-12-29T08:23:50;83.03;;;62.95;;
40611;SDS011;26317;44.894;20.286;2022-12-29T08:26:31;78.50;;;56.78;;
40611;SDS011;26317;44.894;20.286;2022-12-29T08:29:01;74.70;;;54.20;;
40611;SDS011;26317;44.894;20.286;2022-12-29T08:31:35;67.72;;;52.42;;
40611;SDS011;26317;44.894;20.286;2022-12-29T08:34:07;69.60;;;54.03;;
40611;SDS011;26317;44.894;20.286;2022-12-29T08:36:43;73.47;;;52.22;;
40611;SDS011;26317;44.894;20.286;2022-12-29T08:41:55;69.18;;;54.47;;
40611;SDS011;26317;44.894;20.286;2022-12-29T08:44:27;64.28;;;51.55;;
40611;SDS011;26317;44.894;20.286;2022-12-29T08:47:09;64.03;;;48.53;;
40611;SDS011;26317;44.894;20.286;2022-12-29T08:49:42;64.47;;;51.25;;
40611;SDS011;26317;44.894;20.286;2022-12-29T08:52:15;63.25;;;51.25;;
40611;SDS011;26317;44.894;20.286;2022-12-29T08:54:51;69.05;;;53.50;;
40611;SDS011;26317;44.894;20.286;2022-12-29T08:57:23;68.63;;;55.58;;
40611;SDS011;26317;44.894;20.286;2022-12-29T09:00:15;70.05;;;55.50;;
40611;SDS011;26317;44.894;20.286;2022-12-29T09:02:48;72.28;;;55.95;;
40611;SDS011;26317;44.894;20.286;2022-12-29T09:05:23;68.22;;;55.35;;
40611;SDS011;26317;44.894;20.286;2022-12-29T09:07:57;70.90;;;56.92;;
40611;SDS011;26317;44.894;20.286;2022-12-29T09:10:32;74.70;;;57.67;;
40611;SDS011;26317;44.894;20.286;2022-12-29T09:13:16;70.90;;;54.65;;
40611;SDS011;26317;44.894;20.286;2022-12-29T09:15:59;67.63;;;51.78;;
40611;SDS011;26317;44.894;20.286;2022-12-29T09:18:35;65.20;;;52.00;;
40611;SDS011;26317;44.894;20.286;2022-12-29T09:21:12;66.85;;;52.70;;
40611;SDS011;26317;44.894;20.286;2022-12-29T09:23:48;70.20;;;54.00;;
40611;SDS011;26317;44.894;20.286;2022-12-29T09:26:22;71.28;;;56.33;;
40611;SDS011;26317;44.894;20.286;2022-12-29T09:29:02;73.68;;;58.85;;
40611;SDS011;26317;44.894;20.286;2022-12-29T09:31:34;67.75;;;53.13;;
40611;SDS011;26317;44.894;20.286;2022-12-29T09:34:07;70.25;;;54.40;;
40611;SDS011;26317;44.894;20.286;2022-12-29T09:36:46;65.80;;;48.95;;
40611;SDS011;26317;44.894;20.286;2022-12-29T09:39:19;64.95;;;47.65;;
40611;SDS011;26317;44.894;20.286;2022-12-29T09:41:52;62.93;;;45.97;;
40611;SDS011;26317;44.894;20.286;2022-12-29T09:47:33;67.83;;;50.27;;
40611;SDS011;26317;44.894;20.286;2022-12-29T09:50:06;74.97;;;54.05;;
40611;SDS011;26317;44.894;20.286;2022-12-29T09:52:52;72.85;;;54.83;;
40611;SDS011;26317;44.894;20.286;2022-12-29T09:55:35;71.10;;;54.35;;
40611;SDS011;26317;44.894;20.286;2022-12-29T09:58:12;76.60;;;55.47;;
40611;SDS011;26317;44.894;20.286;2022-12-29T10:00:58;81.57;;;58.97;;
40611;SDS011;26317;44.894;20.286;2022-12-29T10:03:47;78.10;;;57.35;;
40611;SDS011;26317;44.894;20.286;2022-12-29T10:06:23;74.75;;;55.35;;
40611;SDS011;26317;44.894;20.286;2022-12-29T10:09:02;78.45;;;58.42;;
40611;SDS011;26317;44.894;20.286;2022-12-29T10:14:53;81.35;;;62.17;;
40611;SDS011;26317;44.894;20.286;2022-12-29T10:17:41;79.53;;;60.42;;
40611;SDS011;26317;44.894;20.286;2022-12-29T10:20:25;65.05;;;50.25;;
40611;SDS011;26317;44.894;20.286;2022-12-29T10:23:24;76.03;;;56.58;;
40611;SDS011;26317;44.894;20.286;2022-12-29T10:26:03;81.45;;;49.08;;
40611;SDS011;26317;44.894;20.286;2022-12-29T10:28:47;70.97;;;53.45;;
40611;SDS011;26317;44.894;20.286;2022-12-29T10:31:24;67.93;;;52.47;;
40611;SDS011;26317;44.894;20.286;2022-12-29T10:34:19;61.80;;;48.58;;
40611;SDS011;26317;44.894;20.286;2022-12-29T10:36:53;65.65;;;46.28;;
40611;SDS011;26317;44.894;20.286;2022-12-29T10:39:32;49.30;;;38.40;;
40611;SDS011;26317;44.894;20.286;2022-12-29T10:42:15;42.33;;;32.53;;
40611;SDS011;26317;44.894;20.286;2022-12-29T10:44:58;38.72;;;32.80;;
40611;SDS011;26317;44.894;20.286;2022-12-29T10:47:33;33.22;;;25.05;;
40611;SDS011;26317;44.894;20.286;2022-12-29T10:50:25;30.85;;;22.15;;
40611;SDS011;26317;44.894;20.286;2022-12-29T10:52:58;26.95;;;19.73;;
40611;SDS011;26317;44.894;20.286;2022-12-29T10:55:40;25.30;;;19.48;;
40611;SDS011;26317;44.894;20.286;2022-12-29T10:58:12;30.10;;;19.42;;
40611;SDS011;26317;44.894;20.286;2022-12-29T11:00:58;30.70;;;20.10;;
40611;SDS011;26317;44.894;20.286;2022-12-29T11:06:45;28.67;;;19.15;;
40611;SDS011;26317;44.894;20.286;2022-12-29T11:09:29;26.58;;;18.88;;
40611;SDS011;26317;44.894;20.286;2022-12-29T11:15:01;31.77;;;17.30;;
40611;SDS011;26317;44.894;20.286;2022-12-29T11:17:48;35.73;;;16.37;;
40611;SDS011;26317;44.894;20.286;2022-12-29T11:20:33;27.83;;;16.65;;
40611;SDS011;26317;44.894;20.286;2022-12-29T11:23:26;24.17;;;16.02;;
40611;SDS011;26317;44.894;20.286;2022-12-29T11:26:11;19.83;;;13.43;;
40611;SDS011;26317;44.894;20.286;2022-12-29T11:29:05;20.83;;;12.77;;
40611;SDS011;26317;44.894;20.286;2022-12-29T11:31:47;14.07;;;12.20;;
40611;SDS011;26317;44.894;20.286;2022-12-29T11:34:19;16.58;;;13.07;;
40611;SDS011;26317;44.894;20.286;2022-12-29T11:37:26;14.88;;;9.85;;
40611;SDS011;26317;44.894;20.286;2022-12-29T11:40:20;14.70;;;9.93;;
40611;SDS011;26317;44.894;20.286;2022-12-29T11:42:57;14.63;;;10.90;;
40611;SDS011;26317;44.894;20.286;2022-12-29T11:45:34;12.20;;;10.13;;
40611;SDS011;26317;44.894;20.286;2022-12-29T11:48:15;18.13;;;12.32;;
40611;SDS011;26317;44.894;20.286;2022-12-29T11:50:49;14.82;;;9.98;;
40611;SDS011;26317;44.894;20.286;2022-12-29T11:53:22;17.00;;;11.15;;
40611;SDS011;26317;44.894;20.286;2022-12-29T11:56:08;19.17;;;11.80;;
40611;SDS011;26317;44.894;20.286;2022-12-29T11:58:46;11.95;;;8.38;;
40611;SDS011;26317;44.894;20.286;2022-12-29T12:01:17;15.15;;;10.23;;
40611;SDS011;26317;44.894;20.286;2022-12-29T12:03:59;21.92;;;10.93;;
40611;SDS011;26317;44.894;20.286;2022-12-29T12:06:41;17.20;;;11.07;;
40611;SDS011;26317;44.894;20.286;2022-12-29T12:09:20;18.15;;;11.10;;
40611;SDS011;26317;44.894;20.286;2022-12-29T12:14:59;17.05;;;10.70;;
40611;SDS011;26317;44.894;20.286;2022-12-29T12:17:55;14.48;;;9.13;;
40611;SDS011;26317;44.894;20.286;2022-12-29T12:20:46;19.02;;;10.43;;
40611;SDS011;26317;44.894;20.286;2022-12-29T12:23:38;17.40;;;10.07;;
40611;SDS011;26317;44.894;20.286;2022-12-29T12:26:21;18.10;;;10.20;;
40611;SDS011;26317;44.894;20.286;2022-12-29T12:29:24;20.42;;;10.90;;
40611;SDS011;26317;44.894;20.286;2022-12-29T12:31:59;23.52;;;11.25;;
40611;SDS011;26317;44.894;20.286;2022-12-29T12:34:37;15.52;;;10.23;;
40611;SDS011;26317;44.894;20.286;2022-12-29T12:40:25;20.33;;;11.43;;
40611;SDS011;26317;44.894;20.286;2022-12-29T12:43:22;14.23;;;10.65;;
40611;SDS011;26317;44.894;20.286;2022-12-29T12:46:31;15.82;;;9.55;;
40611;SDS011;26317;44.894;20.286;2022-12-29T12:49:44;12.45;;;8.52;;
40611;SDS011;26317;44.894;20.286;2022-12-29T12:53:00;16.02;;;9.50;;
40611;SDS011;26317;44.894;20.286;2022-12-29T12:56:03;19.38;;;8.60;;
40611;SDS011;26317;44.894;20.286;2022-12-29T12:59:06;10.90;;;8.38;;
40611;SDS011;26317;44.894;20.286;2022-12-29T13:02:11;14.13;;;9.02;;
40611;SDS011;26317;44.894;20.286;2022-12-29T13:05:03;16.75;;;9.73;;
40611;SDS011;26317;44.894;20.286;2022-12-29T13:07:57;15.80;;;11.15;;
40611;SDS011;26317;44.894;20.286;2022-12-29T13:10:42;19.38;;;13.50;;
40611;SDS011;26317;44.894;20.286;2022-12-29T13:13:32;19.15;;;12.20;;
40611;SDS011;26317;44.894;20.286;2022-12-29T13:16:16;17.73;;;11.30;;
40611;SDS011;26317;44.894;20.286;2022-12-29T13:19:08;14.23;;;10.32;;
40611;SDS011;26317;44.894;20.286;2022-12-29T13:21:54;19.35;;;11.20;;
40611;SDS011;26317;44.894;20.286;2022-12-29T13:24:40;35.95;;;19.80;;
40611;SDS011;26317;44.894;20.286;2022-12-29T13:27:20;21.45;;;14.32;;
40611;SDS011;26317;44.894;20.286;2022-12-29T13:30:03;41.35;;;25.40;;
40611;SDS011;26317;44.894;20.286;2022-12-29T13:32:51;63.63;;;46.03;;
40611;SDS011;26317;44.894;20.286;2022-12-29T13:35:51;48.17;;;33.20;;
40611;SDS011;26317;44.894;20.286;2022-12-29T13:38:39;77.30;;;53.40;;
40611;SDS011;26317;44.894;20.286;2022-12-29T13:41:32;46.33;;;35.90;;
40611;SDS011;26317;44.894;20.286;2022-12-29T13:44:07;39.90;;;20.80;;
40611;SDS011;26317;44.894;20.286;2022-12-29T13:46:46;27.52;;;12.75;;
40611;SDS011;26317;44.894;20.286;2022-12-29T13:49:22;17.83;;;11.98;;
40611;SDS011;26317;44.894;20.286;2022-12-29T13:52:13;23.00;;;14.20;;
40611;SDS011;26317;44.894;20.286;2022-12-29T13:54:58;23.92;;;15.30;;
40611;SDS011;26317;44.894;20.286;2022-12-29T13:57:39;24.30;;;15.13;;
40611;SDS011;26317;44.894;20.286;2022-12-29T14:00:22;30.52;;;14.80;;
40611;SDS011;26317;44.894;20.286;2022-12-29T14:06:21;48.72;;;32.00;;
40611;SDS011;26317;44.894;20.286;2022-12-29T14:09:03;57.72;;;39.85;;
40611;SDS011;26317;44.894;20.286;2022-12-29T14:11:41;69.78;;;43.25;;
40611;SDS011;26317;44.894;20.286;2022-12-29T14:14:21;62.92;;;46.30;;
40611;SDS011;26317;44.894;20.286;2022-12-29T14:17:11;61.45;;;45.33;;
40611;SDS011;26317;44.894;20.286;2022-12-29T14:19:55;65.45;;;43.28;;
40611;SDS011;26317;44.894;20.286;2022-12-29T14:22:35;62.10;;;45.78;;
40611;SDS011;26317;44.894;20.286;2022-12-29T14:28:43;71.60;;;47.03;;
40611;SDS011;26317;44.894;20.286;2022-12-29T14:34:16;56.13;;;42.88;;
40611;SDS011;26317;44.894;20.286;2022-12-29T14:37:24;62.85;;;48.03;;
40611;SDS011;26317;44.894;20.286;2022-12-29T14:40:06;68.55;;;48.65;;
40611;SDS011;26317;44.894;20.286;2022-12-29T14:42:53;63.92;;;48.30;;
40611;SDS011;26317;44.894;20.286;2022-12-29T14:45:37;72.32;;;55.15;;
40611;SDS011;26317;44.894;20.286;2022-12-29T14:48:32;86.30;;;62.43;;
40611;SDS011;26317;44.894;20.286;2022-12-29T14:51:21;91.55;;;64.18;;
40611;SDS011;26317;44.894;20.286;2022-12-29T14:57:20;91.25;;;65.75;;
40611;SDS011;26317;44.894;20.286;2022-12-29T15:00:00;89.65;;;60.80;;
40611;SDS011;26317;44.894;20.286;2022-12-29T15:03:12;82.47;;;59.78;;
40611;SDS011;26317;44.894;20.286;2022-12-29T15:05:58;86.50;;;59.35;;
40611;SDS011;26317;44.894;20.286;2022-12-29T15:08:42;75.82;;;56.78;;
40611;SDS011;26317;44.894;20.286;2022-12-29T15:11:22;78.05;;;56.85;;
40611;SDS011;26317;44.894;20.286;2022-12-29T15:14:23;70.32;;;52.88;;
40611;SDS011;26317;44.894;20.286;2022-12-29T15:20:14;70.50;;;52.00;;
40611;SDS011;26317;44.894;20.286;2022-12-29T15:25:32;82.53;;;57.50;;
40611;SDS011;26317;44.894;20.286;2022-12-29T15:28:06;76.78;;;55.45;;
40611;SDS011;26317;44.894;20.286;2022-12-29T15:30:49;76.13;;;51.50;;
40611;SDS011;26317;44.894;20.286;2022-12-29T15:33:28;71.32;;;50.95;;
40611;SDS011;26317;44.894;20.286;2022-12-29T15:36:09;74.38;;;48.92;;
40611;SDS011;26317;44.894;20.286;2022-12-29T15:38:51;71.07;;;48.33;;
40611;SDS011;26317;44.894;20.286;2022-12-29T15:41:32;73.30;;;48.67;;
40611;SDS011;26317;44.894;20.286;2022-12-29T15:44:25;70.78;;;45.58;;
40611;SDS011;26317;44.894;20.286;2022-12-29T15:47:00;72.40;;;42.38;;
40611;SDS011;26317;44.894;20.286;2022-12-29T15:49:33;58.80;;;41.40;;
40611;SDS011;26317;44.894;20.286;2022-12-29T15:52:13;62.83;;;43.35;;
40611;SDS011;26317;44.894;20.286;2022-12-29T15:54:50;62.33;;;39.83;;
40611;SDS011;26317;44.894;20.286;2022-12-29T15:57:36;59.50;;;36.10;;
40611;SDS011;26317;44.894;20.286;2022-12-29T16:00:23;56.67;;;34.03;;
40611;SDS011;26317;44.894;20.286;2022-12-29T16:03:01;60.05;;;33.55;;
40611;SDS011;26317;44.894;20.286;2022-12-29T16:05:36;66.68;;;33.47;;
40611;SDS011;26317;44.894;20.286;2022-12-29T16:08:24;56.70;;;33.60;;
40611;SDS011;26317;44.894;20.286;2022-12-29T16:11:05;58.08;;;31.75;;
40611;SDS011;26317;44.894;20.286;2022-12-29T16:13:53;54.35;;;31.95;;
40611;SDS011;26317;44.894;20.286;2022-12-29T16:16:27;48.40;;;30.50;;
40611;SDS011;26317;44.894;20.286;2022-12-29T16:19:02;46.50;;;27.80;;
40611;SDS011;26317;44.894;20.286;2022-12-29T16:21:44;44.60;;;26.58;;
40611;SDS011;26317;44.894;20.286;2022-12-29T16:24:25;38.80;;;23.13;;